sensor_id;sensor_type;location;lat;lon;timestamp;P1;durP1;ratioP1;P2;durP2;ratioP2
9007;SDS011;62813;51.424;6.762;2023-07-13T00:00:23;4.43;;;1.60;;
9007;SDS011;62813;51.424;6.762;2023-07-13T00:02:50;5.13;;;1.60;;
9007;SDS011;62813;51.424;6.762;2023-07-13T00:05:20;5.53;;;2.07;;
9007;SDS011;62813;51.424;6.762;2023-07-13T00:07:48;6.30;;;2.20;;
9007;SDS011;62813;51.424;6.762;2023-07-13T00:10:16;5.67;;;1.80;;
9007;SDS011;62813;51.424;6.762;2023-07-13T00:12:43;3.03;;;1.53;;
9007;SDS011;62813;51.424;6.762;2023-07-13T00:15:18;3.77;;;1.53;;
9007;SDS011;62813;51.424;6.762;2023-07-13T00:17:50;3.43;;;1.60;;
9007;SDS011;62813;51.424;6.762;2023-07-13T00:20:19;3.87;;;1.70;;
9007;SDS011;62813;51.424;6.762;2023-07-13T00:22:48;4.47;;;1.60;;
9007;SDS011;62813;51.424;6.762;2023-07-13T00:25:16;3.53;;;1.40;;
9007;SDS011;62813;51.424;6.762;2023-07-13T00:27:43;5.60;;;1.53;;
9007;SDS011;62813;51.424;6.762;2023-07-13T00:41:02;4.73;;;1.80;;
9007;SDS011;62813;51.424;6.762;2023-07-13T00:43:44;5.67;;;1.37;;
9007;SDS011;62813;51.424;6.762;2023-07-13T00:46:21;2.83;;;1.30;;
9007;SDS011;62813;51.424;6.762;2023-07-13T00:48:51;4.13;;;1.53;;
9007;SDS011;62813;51.424;6.762;2023-07-13T00:51:21;4.67;;;1.50;;
9007;SDS011;62813;51.424;6.762;2023-07-13T00:53:53;4.27;;;1.60;;
9007;SDS011;62813;51.424;6.762;2023-07-13T00:56:22;4.23;;;1.63;;
9007;SDS011;62813;51.424;6.762;2023-07-13T00:58:50;7.03;;;2.07;;
9007;SDS011;62813;51.424;6.762;2023-07-13T01:01:17;3.63;;;1.60;;
9007;SDS011;62813;51.424;6.762;2023-07-13T01:03:44;3.57;;;1.50;;
9007;SDS011;62813;51.424;6.762;2023-07-13T01:06:11;6.10;;;1.80;;
9007;SDS011;62813;51.424;6.762;2023-07-13T01:08:38;5.83;;;1.70;;
9007;SDS011;62813;51.424;6.762;2023-07-13T01:11:06;3.37;;;1.50;;
9007;SDS011;62813;51.424;6.762;2023-07-13T01:13:34;4.67;;;2.00;;
9007;SDS011;62813;51.424;6.762;2023-07-13T01:16:02;4.83;;;1.60;;
9007;SDS011;62813;51.424;6.762;2023-07-13T01:18:38;4.83;;;2.00;;
9007;SDS011;62813;51.424;6.762;2023-07-13T01:21:05;6.13;;;1.50;;
9007;SDS011;62813;51.424;6.762;2023-07-13T01:23:32;4.33;;;1.83;;
9007;SDS011;62813;51.424;6.762;2023-07-13T01:25:59;4.77;;;1.83;;
9007;SDS011;62813;51.424;6.762;2023-07-13T01:28:26;3.47;;;1.57;;
9007;SDS011;62813;51.424;6.762;2023-07-13T01:30:55;5.13;;;1.77;;
9007;SDS011;62813;51.424;6.762;2023-07-13T01:33:23;5.17;;;1.77;;
9007;SDS011;62813;51.424;6.762;2023-07-13T01:35:50;5.53;;;1.80;;
9007;SDS011;62813;51.424;6.762;2023-07-13T01:38:18;4.20;;;1.70;;
9007;SDS011;62813;51.424;6.762;2023-07-13T01:40:46;3.47;;;1.90;;
9007;SDS011;62813;51.424;6.762;2023-07-13T01:43:13;4.73;;;1.67;;
9007;SDS011;62813;51.424;6.762;2023-07-13T01:45:40;6.97;;;1.83;;
9007;SDS011;62813;51.424;6.762;2023-07-13T01:48:11;3.57;;;1.63;;
9007;SDS011;62813;51.424;6.762;2023-07-13T01:50:38;4.17;;;1.33;;
9007;SDS011;62813;51.424;6.762;2023-07-13T01:53:06;4.07;;;1.33;;
9007;SDS011;62813;51.424;6.762;2023-07-13T01:55:33;6.00;;;1.80;;
9007;SDS011;62813;51.424;6.762;2023-07-13T01:58:00;3.30;;;1.53;;
9007;SDS011;62813;51.424;6.762;2023-07-13T02:00:27;6.03;;;1.90;;
9007;SDS011;62813;51.424;6.762;2023-07-13T02:02:54;5.07;;;1.70;;
9007;SDS011;62813;51.424;6.762;2023-07-13T02:05:21;4.43;;;1.90;;
9007;SDS011;62813;51.424;6.762;2023-07-13T02:07:47;3.73;;;1.70;;
9007;SDS011;62813;51.424;6.762;2023-07-13T02:10:14;5.90;;;1.90;;
9007;SDS011;62813;51.424;6.762;2023-07-13T02:12:41;3.20;;;1.80;;
9007;SDS011;62813;51.424;6.762;2023-07-13T02:15:08;5.67;;;2.00;;
9007;SDS011;62813;51.424;6.762;2023-07-13T02:17:36;4.83;;;1.80;;
9007;SDS011;62813;51.424;6.762;2023-07-13T02:20:03;9.30;;;2.00;;
9007;SDS011;62813;51.424;6.762;2023-07-13T02:22:31;4.77;;;1.67;;
9007;SDS011;62813;51.424;6.762;2023-07-13T02:24:57;3.30;;;1.50;;
9007;SDS011;62813;51.424;6.762;2023-07-13T02:27:24;5.93;;;2.00;;
9007;SDS011;62813;51.424;6.762;2023-07-13T02:29:51;5.20;;;1.77;;
9007;SDS011;62813;51.424;6.762;2023-07-13T02:32:18;3.47;;;1.63;;
9007;SDS011;62813;51.424;6.762;2023-07-13T02:34:44;5.33;;;1.70;;
9007;SDS011;62813;51.424;6.762;2023-07-13T02:37:11;3.10;;;1.60;;
9007;SDS011;62813;51.424;6.762;2023-07-13T02:39:38;5.70;;;1.90;;
9007;SDS011;62813;51.424;6.762;2023-07-13T02:42:05;3.87;;;1.70;;
9007;SDS011;62813;51.424;6.762;2023-07-13T02:44:32;4.30;;;1.80;;
9007;SDS011;62813;51.424;6.762;2023-07-13T02:46:58;3.93;;;1.80;;
9007;SDS011;62813;51.424;6.762;2023-07-13T02:49:25;5.83;;;1.83;;
9007;SDS011;62813;51.424;6.762;2023-07-13T02:51:52;4.73;;;1.53;;
9007;SDS011;62813;51.424;6.762;2023-07-13T02:54:19;3.80;;;1.87;;
9007;SDS011;62813;51.424;6.762;2023-07-13T02:56:45;4.27;;;1.90;;
9007;SDS011;62813;51.424;6.762;2023-07-13T02:59:12;3.30;;;1.70;;
9007;SDS011;62813;51.424;6.762;2023-07-13T03:01:39;4.67;;;1.63;;
9007;SDS011;62813;51.424;6.762;2023-07-13T03:04:06;3.97;;;1.90;;
9007;SDS011;62813;51.424;6.762;2023-07-13T03:06:33;3.30;;;1.83;;
9007;SDS011;62813;51.424;6.762;2023-07-13T03:09:00;3.30;;;1.77;;
9007;SDS011;62813;51.424;6.762;2023-07-13T03:11:26;4.40;;;1.80;;
9007;SDS011;62813;51.424;6.762;2023-07-13T03:13:53;4.30;;;1.93;;
9007;SDS011;62813;51.424;6.762;2023-07-13T03:16:20;3.77;;;1.77;;
9007;SDS011;62813;51.424;6.762;2023-07-13T03:18:47;4.83;;;1.90;;
9007;SDS011;62813;51.424;6.762;2023-07-13T03:21:14;4.73;;;1.97;;
9007;SDS011;62813;51.424;6.762;2023-07-13T03:23:42;5.00;;;1.60;;
9007;SDS011;62813;51.424;6.762;2023-07-13T03:26:09;7.37;;;1.80;;
9007;SDS011;62813;51.424;6.762;2023-07-13T03:28:40;4.90;;;1.70;;
9007;SDS011;62813;51.424;6.762;2023-07-13T03:31:14;5.73;;;1.80;;
9007;SDS011;62813;51.424;6.762;2023-07-13T03:33:43;5.20;;;1.70;;
9007;SDS011;62813;51.424;6.762;2023-07-13T03:36:13;5.13;;;1.90;;
9007;SDS011;62813;51.424;6.762;2023-07-13T03:38:48;6.67;;;1.80;;
9007;SDS011;62813;51.424;6.762;2023-07-13T03:41:17;5.37;;;2.73;;
9007;SDS011;62813;51.424;6.762;2023-07-13T03:43:43;9.50;;;3.27;;
9007;SDS011;62813;51.424;6.762;2023-07-13T03:46:10;8.57;;;4.30;;
9007;SDS011;62813;51.424;6.762;2023-07-13T03:48:38;6.23;;;3.83;;
9007;SDS011;62813;51.424;6.762;2023-07-13T03:51:07;12.17;;;6.50;;
9007;SDS011;62813;51.424;6.762;2023-07-13T03:53:37;6.83;;;3.33;;
9007;SDS011;62813;51.424;6.762;2023-07-13T03:56:05;8.47;;;4.27;;
9007;SDS011;62813;51.424;6.762;2023-07-13T03:58:36;8.40;;;4.00;;
9007;SDS011;62813;51.424;6.762;2023-07-13T04:01:05;7.80;;;4.90;;
9007;SDS011;62813;51.424;6.762;2023-07-13T04:03:34;7.23;;;4.30;;
9007;SDS011;62813;51.424;6.762;2023-07-13T04:06:02;6.40;;;3.10;;
9007;SDS011;62813;51.424;6.762;2023-07-13T04:08:32;8.13;;;3.13;;
9007;SDS011;62813;51.424;6.762;2023-07-13T04:11:01;5.50;;;2.73;;
9007;SDS011;62813;51.424;6.762;2023-07-13T04:13:29;6.27;;;3.60;;
9007;SDS011;62813;51.424;6.762;2023-07-13T04:15:56;5.00;;;3.00;;
9007;SDS011;62813;51.424;6.762;2023-07-13T04:18:23;8.30;;;3.70;;
9007;SDS011;62813;51.424;6.762;2023-07-13T04:20:50;4.73;;;2.43;;
9007;SDS011;62813;51.424;6.762;2023-07-13T04:23:17;6.07;;;3.70;;
9007;SDS011;62813;51.424;6.762;2023-07-13T04:25:45;8.43;;;2.63;;
9007;SDS011;62813;51.424;6.762;2023-07-13T04:28:12;7.87;;;3.20;;
9007;SDS011;62813;51.424;6.762;2023-07-13T04:30:39;7.53;;;2.93;;
9007;SDS011;62813;51.424;6.762;2023-07-13T04:33:06;9.00;;;3.30;;
9007;SDS011;62813;51.424;6.762;2023-07-13T04:35:33;6.13;;;2.83;;
9007;SDS011;62813;51.424;6.762;2023-07-13T04:37:59;7.10;;;2.57;;
9007;SDS011;62813;51.424;6.762;2023-07-13T04:40:26;8.43;;;2.80;;
9007;SDS011;62813;51.424;6.762;2023-07-13T04:42:54;7.77;;;2.43;;
9007;SDS011;62813;51.424;6.762;2023-07-13T04:45:20;6.50;;;2.03;;
9007;SDS011;62813;51.424;6.762;2023-07-13T04:47:47;11.50;;;2.73;;
9007;SDS011;62813;51.424;6.762;2023-07-13T04:50:14;5.87;;;2.40;;
9007;SDS011;62813;51.424;6.762;2023-07-13T04:52:47;7.20;;;3.07;;
9007;SDS011;62813;51.424;6.762;2023-07-13T04:55:14;8.67;;;3.33;;
9007;SDS011;62813;51.424;6.762;2023-07-13T04:57:40;5.63;;;2.50;;
9007;SDS011;62813;51.424;6.762;2023-07-13T05:00:07;9.83;;;2.33;;
9007;SDS011;62813;51.424;6.762;2023-07-13T05:02:37;7.60;;;3.20;;
9007;SDS011;62813;51.424;6.762;2023-07-13T05:05:05;9.33;;;3.30;;
9007;SDS011;62813;51.424;6.762;2023-07-13T05:07:32;6.97;;;2.97;;
9007;SDS011;62813;51.424;6.762;2023-07-13T05:09:59;7.17;;;2.40;;
9007;SDS011;62813;51.424;6.762;2023-07-13T05:12:26;10.17;;;3.57;;
9007;SDS011;62813;51.424;6.762;2023-07-13T05:14:53;8.97;;;2.80;;
9007;SDS011;62813;51.424;6.762;2023-07-13T05:17:20;7.80;;;2.57;;
9007;SDS011;62813;51.424;6.762;2023-07-13T05:19:47;12.03;;;5.47;;
9007;SDS011;62813;51.424;6.762;2023-07-13T05:22:13;6.37;;;3.77;;
9007;SDS011;62813;51.424;6.762;2023-07-13T05:24:40;9.27;;;4.40;;
9007;SDS011;62813;51.424;6.762;2023-07-13T05:27:07;10.37;;;4.13;;
9007;SDS011;62813;51.424;6.762;2023-07-13T05:29:33;10.63;;;2.83;;
9007;SDS011;62813;51.424;6.762;2023-07-13T05:32:00;5.23;;;2.63;;
9007;SDS011;62813;51.424;6.762;2023-07-13T05:34:27;7.77;;;3.70;;
9007;SDS011;62813;51.424;6.762;2023-07-13T05:36:54;8.80;;;3.50;;
9007;SDS011;62813;51.424;6.762;2023-07-13T05:39:20;7.70;;;3.77;;
9007;SDS011;62813;51.424;6.762;2023-07-13T05:41:48;7.87;;;3.50;;
9007;SDS011;62813;51.424;6.762;2023-07-13T05:44:15;11.53;;;3.40;;
9007;SDS011;62813;51.424;6.762;2023-07-13T05:46:41;6.57;;;3.03;;
9007;SDS011;62813;51.424;6.762;2023-07-13T05:49:08;7.67;;;3.07;;
9007;SDS011;62813;51.424;6.762;2023-07-13T05:51:35;10.80;;;3.63;;
9007;SDS011;62813;51.424;6.762;2023-07-13T05:54:01;11.23;;;3.87;;
9007;SDS011;62813;51.424;6.762;2023-07-13T05:56:28;9.77;;;3.20;;
9007;SDS011;62813;51.424;6.762;2023-07-13T05:58:56;8.57;;;3.87;;
9007;SDS011;62813;51.424;6.762;2023-07-13T06:01:22;8.03;;;3.47;;
9007;SDS011;62813;51.424;6.762;2023-07-13T06:03:50;11.20;;;3.30;;
9007;SDS011;62813;51.424;6.762;2023-07-13T06:06:16;8.47;;;3.90;;
9007;SDS011;62813;51.424;6.762;2023-07-13T06:08:43;10.80;;;3.43;;
9007;SDS011;62813;51.424;6.762;2023-07-13T06:11:14;11.03;;;3.13;;
9007;SDS011;62813;51.424;6.762;2023-07-13T06:13:42;9.37;;;3.60;;
9007;SDS011;62813;51.424;6.762;2023-07-13T06:16:09;5.60;;;2.80;;
9007;SDS011;62813;51.424;6.762;2023-07-13T06:18:37;7.93;;;2.90;;
9007;SDS011;62813;51.424;6.762;2023-07-13T06:21:08;10.93;;;3.40;;
9007;SDS011;62813;51.424;6.762;2023-07-13T06:23:35;8.43;;;2.90;;
9007;SDS011;62813;51.424;6.762;2023-07-13T06:26:03;7.43;;;3.07;;
9007;SDS011;62813;51.424;6.762;2023-07-13T06:28:31;5.83;;;2.77;;
9007;SDS011;62813;51.424;6.762;2023-07-13T06:30:58;8.70;;;3.40;;
9007;SDS011;62813;51.424;6.762;2023-07-13T06:33:26;7.83;;;3.10;;
9007;SDS011;62813;51.424;6.762;2023-07-13T06:35:53;6.57;;;3.30;;
9007;SDS011;62813;51.424;6.762;2023-07-13T06:38:21;5.93;;;2.60;;
9007;SDS011;62813;51.424;6.762;2023-07-13T06:40:48;8.03;;;2.90;;
9007;SDS011;62813;51.424;6.762;2023-07-13T06:43:14;6.77;;;2.87;;
9007;SDS011;62813;51.424;6.762;2023-07-13T06:45:43;11.00;;;2.87;;
9007;SDS011;62813;51.424;6.762;2023-07-13T06:48:16;8.10;;;3.10;;
9007;SDS011;62813;51.424;6.762;2023-07-13T06:50:43;7.50;;;3.27;;
9007;SDS011;62813;51.424;6.762;2023-07-13T06:53:10;8.03;;;3.07;;
9007;SDS011;62813;51.424;6.762;2023-07-13T06:55:38;6.43;;;2.80;;
9007;SDS011;62813;51.424;6.762;2023-07-13T06:58:06;9.27;;;3.10;;
9007;SDS011;62813;51.424;6.762;2023-07-13T07:00:32;9.70;;;3.10;;
9007;SDS011;62813;51.424;6.762;2023-07-13T07:02:59;11.20;;;3.00;;
9007;SDS011;62813;51.424;6.762;2023-07-13T07:05:26;10.07;;;3.20;;
9007;SDS011;62813;51.424;6.762;2023-07-13T07:07:54;8.13;;;3.27;;
9007;SDS011;62813;51.424;6.762;2023-07-13T07:10:21;8.30;;;3.13;;
9007;SDS011;62813;51.424;6.762;2023-07-13T07:12:48;10.60;;;3.50;;
9007;SDS011;62813;51.424;6.762;2023-07-13T07:15:14;7.63;;;3.10;;
9007;SDS011;62813;51.424;6.762;2023-07-13T07:17:41;10.30;;;3.33;;
9007;SDS011;62813;51.424;6.762;2023-07-13T07:20:08;8.97;;;3.30;;
9007;SDS011;62813;51.424;6.762;2023-07-13T07:22:35;9.60;;;3.37;;
9007;SDS011;62813;51.424;6.762;2023-07-13T07:25:02;9.27;;;3.53;;
9007;SDS011;62813;51.424;6.762;2023-07-13T07:27:29;9.77;;;3.80;;
9007;SDS011;62813;51.424;6.762;2023-07-13T07:29:59;7.07;;;2.97;;
9007;SDS011;62813;51.424;6.762;2023-07-13T07:32:29;7.50;;;3.47;;
9007;SDS011;62813;51.424;6.762;2023-07-13T07:35:17;10.47;;;3.40;;
9007;SDS011;62813;51.424;6.762;2023-07-13T07:37:43;10.37;;;3.43;;
9007;SDS011;62813;51.424;6.762;2023-07-13T07:40:13;10.23;;;3.57;;
9007;SDS011;62813;51.424;6.762;2023-07-13T07:42:42;11.77;;;3.90;;
9007;SDS011;62813;51.424;6.762;2023-07-13T07:45:09;7.20;;;3.57;;
9007;SDS011;62813;51.424;6.762;2023-07-13T07:47:38;6.60;;;3.03;;
9007;SDS011;62813;51.424;6.762;2023-07-13T07:50:05;8.87;;;3.40;;
9007;SDS011;62813;51.424;6.762;2023-07-13T07:52:32;11.13;;;3.60;;
9007;SDS011;62813;51.424;6.762;2023-07-13T07:54:59;8.00;;;3.50;;
9007;SDS011;62813;51.424;6.762;2023-07-13T07:57:28;10.63;;;3.57;;
9007;SDS011;62813;51.424;6.762;2023-07-13T08:00:15;8.30;;;3.43;;
9007;SDS011;62813;51.424;6.762;2023-07-13T08:02:45;8.63;;;3.27;;
9007;SDS011;62813;51.424;6.762;2023-07-13T08:05:15;7.57;;;3.13;;
9007;SDS011;62813;51.424;6.762;2023-07-13T08:07:44;10.90;;;4.13;;
9007;SDS011;62813;51.424;6.762;2023-07-13T08:10:11;9.23;;;3.13;;
9007;SDS011;62813;51.424;6.762;2023-07-13T08:12:38;12.13;;;3.73;;
9007;SDS011;62813;51.424;6.762;2023-07-13T08:15:28;9.57;;;3.23;;
9007;SDS011;62813;51.424;6.762;2023-07-13T08:17:55;10.20;;;3.53;;
9007;SDS011;62813;51.424;6.762;2023-07-13T08:20:22;6.83;;;2.60;;
9007;SDS011;62813;51.424;6.762;2023-07-13T08:22:49;9.63;;;3.50;;
9007;SDS011;62813;51.424;6.762;2023-07-13T08:25:16;7.20;;;3.13;;
9007;SDS011;62813;51.424;6.762;2023-07-13T08:27:42;7.53;;;2.93;;
9007;SDS011;62813;51.424;6.762;2023-07-13T08:30:10;10.77;;;3.57;;
9007;SDS011;62813;51.424;6.762;2023-07-13T08:32:36;6.73;;;3.20;;
9007;SDS011;62813;51.424;6.762;2023-07-13T08:35:04;7.87;;;3.87;;
9007;SDS011;62813;51.424;6.762;2023-07-13T08:37:32;9.53;;;3.03;;
9007;SDS011;62813;51.424;6.762;2023-07-13T08:39:58;8.70;;;2.80;;
9007;SDS011;62813;51.424;6.762;2023-07-13T08:45:17;6.63;;;3.00;;
9007;SDS011;62813;51.424;6.762;2023-07-13T08:47:52;5.73;;;2.60;;
9007;SDS011;62813;51.424;6.762;2023-07-13T08:50:24;7.53;;;2.40;;
9007;SDS011;62813;51.424;6.762;2023-07-13T08:52:59;7.30;;;2.90;;
9007;SDS011;62813;51.424;6.762;2023-07-13T08:55:29;7.43;;;2.83;;
9007;SDS011;62813;51.424;6.762;2023-07-13T08:58:02;8.80;;;3.07;;
9007;SDS011;62813;51.424;6.762;2023-07-13T09:03:20;4.73;;;2.80;;
9007;SDS011;62813;51.424;6.762;2023-07-13T09:05:52;7.70;;;2.93;;
9007;SDS011;62813;51.424;6.762;2023-07-13T09:11:00;12.00;;;3.43;;
9007;SDS011;62813;51.424;6.762;2023-07-13T09:16:22;8.67;;;3.60;;
9007;SDS011;62813;51.424;6.762;2023-07-13T09:18:51;13.13;;;4.43;;
9007;SDS011;62813;51.424;6.762;2023-07-13T09:21:23;6.63;;;3.00;;
9007;SDS011;62813;51.424;6.762;2023-07-13T09:24:00;10.23;;;4.03;;
9007;SDS011;62813;51.424;6.762;2023-07-13T09:26:47;10.10;;;3.60;;
9007;SDS011;62813;51.424;6.762;2023-07-13T09:29:16;9.43;;;3.87;;
9007;SDS011;62813;51.424;6.762;2023-07-13T09:31:52;8.67;;;3.50;;
9007;SDS011;62813;51.424;6.762;2023-07-13T09:34:20;9.40;;;3.40;;
9007;SDS011;62813;51.424;6.762;2023-07-13T09:36:47;12.80;;;3.97;;
9007;SDS011;62813;51.424;6.762;2023-07-13T09:39:15;7.63;;;3.30;;
9007;SDS011;62813;51.424;6.762;2023-07-13T09:42:15;7.03;;;3.53;;
9007;SDS011;62813;51.424;6.762;2023-07-13T09:44:51;9.07;;;4.13;;
9007;SDS011;62813;51.424;6.762;2023-07-13T09:47:28;9.17;;;3.40;;
9007;SDS011;62813;51.424;6.762;2023-07-13T09:50:01;9.40;;;3.47;;
9007;SDS011;62813;51.424;6.762;2023-07-13T09:52:43;7.13;;;3.07;;
9007;SDS011;62813;51.424;6.762;2023-07-13T09:57:50;11.80;;;3.87;;
9007;SDS011;62813;51.424;6.762;2023-07-13T10:00:22;9.63;;;3.77;;
9007;SDS011;62813;51.424;6.762;2023-07-13T10:05:49;11.27;;;3.40;;
9007;SDS011;62813;51.424;6.762;2023-07-13T10:08:24;7.60;;;3.10;;
9007;SDS011;62813;51.424;6.762;2023-07-13T10:11:00;7.67;;;2.90;;
9007;SDS011;62813;51.424;6.762;2023-07-13T10:13:40;8.00;;;3.30;;
9007;SDS011;62813;51.424;6.762;2023-07-13T10:16:10;8.97;;;3.53;;
9007;SDS011;62813;51.424;6.762;2023-07-13T10:18:42;6.50;;;2.50;;
9007;SDS011;62813;51.424;6.762;2023-07-13T10:21:14;6.43;;;3.00;;
9007;SDS011;62813;51.424;6.762;2023-07-13T10:24:12;8.57;;;3.00;;
9007;SDS011;62813;51.424;6.762;2023-07-13T10:27:18;8.60;;;3.10;;
9007;SDS011;62813;51.424;6.762;2023-07-13T10:30:06;7.60;;;3.13;;
9007;SDS011;62813;51.424;6.762;2023-07-13T10:32:31;6.20;;;2.70;;
9007;SDS011;62813;51.424;6.762;2023-07-13T10:34:59;5.67;;;2.57;;
9007;SDS011;62813;51.424;6.762;2023-07-13T10:37:29;6.40;;;3.20;;
9007;SDS011;62813;51.424;6.762;2023-07-13T10:40:03;5.63;;;2.60;;
9007;SDS011;62813;51.424;6.762;2023-07-13T10:42:32;8.57;;;3.10;;
9007;SDS011;62813;51.424;6.762;2023-07-13T10:45:11;6.60;;;2.80;;
9007;SDS011;62813;51.424;6.762;2023-07-13T10:47:40;8.97;;;3.10;;
9007;SDS011;62813;51.424;6.762;2023-07-13T10:50:08;5.27;;;2.80;;
9007;SDS011;62813;51.424;6.762;2023-07-13T10:58:18;8.80;;;3.43;;
9007;SDS011;62813;51.424;6.762;2023-07-13T11:01:02;8.63;;;2.57;;
9007;SDS011;62813;51.424;6.762;2023-07-13T11:03:33;4.67;;;2.43;;
9007;SDS011;62813;51.424;6.762;2023-07-13T11:06:10;5.47;;;2.60;;
9007;SDS011;62813;51.424;6.762;2023-07-13T11:11:36;6.50;;;2.50;;
9007;SDS011;62813;51.424;6.762;2023-07-13T11:14:09;7.07;;;2.53;;
9007;SDS011;62813;51.424;6.762;2023-07-13T11:17:24;7.17;;;2.63;;
9007;SDS011;62813;51.424;6.762;2023-07-13T11:19:54;6.80;;;2.67;;
9007;SDS011;62813;51.424;6.762;2023-07-13T11:27:51;7.03;;;2.53;;
9007;SDS011;62813;51.424;6.762;2023-07-13T11:35:49;7.40;;;2.50;;
9007;SDS011;62813;51.424;6.762;2023-07-13T11:38:28;6.13;;;2.60;;
9007;SDS011;62813;51.424;6.762;2023-07-13T11:41:01;6.20;;;2.43;;
9007;SDS011;62813;51.424;6.762;2023-07-13T11:43:30;7.33;;;2.63;;
9007;SDS011;62813;51.424;6.762;2023-07-13T11:46:45;6.27;;;2.87;;
9007;SDS011;62813;51.424;6.762;2023-07-13T11:48:51;6.83;;;2.30;;
9007;SDS011;62813;51.424;6.762;2023-07-13T11:51:21;5.40;;;2.50;;
9007;SDS011;62813;51.424;6.762;2023-07-13T11:53:53;6.87;;;2.60;;
9007;SDS011;62813;51.424;6.762;2023-07-13T11:56:24;4.50;;;2.30;;
9007;SDS011;62813;51.424;6.762;2023-07-13T11:58:53;5.20;;;2.50;;
9007;SDS011;62813;51.424;6.762;2023-07-13T12:01:27;3.83;;;1.93;;
9007;SDS011;62813;51.424;6.762;2023-07-13T12:04:00;4.87;;;2.20;;
9007;SDS011;62813;51.424;6.762;2023-07-13T12:06:30;4.07;;;2.13;;
9007;SDS011;62813;51.424;6.762;2023-07-13T12:09:00;4.47;;;2.07;;
9007;SDS011;62813;51.424;6.762;2023-07-13T12:11:30;3.90;;;2.00;;
9007;SDS011;62813;51.424;6.762;2023-07-13T12:14:03;5.93;;;2.43;;
9007;SDS011;62813;51.424;6.762;2023-07-13T12:16:30;4.37;;;2.13;;
9007;SDS011;62813;51.424;6.762;2023-07-13T12:19:00;4.77;;;2.10;;
9007;SDS011;62813;51.424;6.762;2023-07-13T12:21:32;5.93;;;2.53;;
9007;SDS011;62813;51.424;6.762;2023-07-13T12:24:00;4.90;;;2.50;;
9007;SDS011;62813;51.424;6.762;2023-07-13T12:26:30;5.60;;;2.47;;
9007;SDS011;62813;51.424;6.762;2023-07-13T12:28:58;5.27;;;2.40;;
9007;SDS011;62813;51.424;6.762;2023-07-13T12:31:33;5.67;;;2.20;;
9007;SDS011;62813;51.424;6.762;2023-07-13T12:34:11;8.37;;;1.97;;
9007;SDS011;62813;51.424;6.762;2023-07-13T12:36:55;6.33;;;2.40;;
9007;SDS011;62813;51.424;6.762;2023-07-13T12:45:05;4.23;;;2.13;;
9007;SDS011;62813;51.424;6.762;2023-07-13T12:47:50;5.30;;;1.97;;
9007;SDS011;62813;51.424;6.762;2023-07-13T12:50:22;3.67;;;2.10;;
9007;SDS011;62813;51.424;6.762;2023-07-13T12:52:51;4.97;;;1.80;;
9007;SDS011;62813;51.424;6.762;2023-07-13T12:55:20;8.03;;;2.33;;
9007;SDS011;62813;51.424;6.762;2023-07-13T12:57:51;5.27;;;2.63;;
9007;SDS011;62813;51.424;6.762;2023-07-13T13:00:26;6.97;;;2.03;;
9007;SDS011;62813;51.424;6.762;2023-07-13T13:03:02;11.20;;;2.60;;
9007;SDS011;62813;51.424;6.762;2023-07-13T13:05:58;5.03;;;2.10;;
9007;SDS011;62813;51.424;6.762;2023-07-13T13:08:30;5.90;;;2.37;;
9007;SDS011;62813;51.424;6.762;2023-07-13T13:10:59;6.70;;;2.57;;
9007;SDS011;62813;51.424;6.762;2023-07-13T13:13:26;4.33;;;2.10;;
9007;SDS011;62813;51.424;6.762;2023-07-13T13:15:52;6.00;;;2.70;;
9007;SDS011;62813;51.424;6.762;2023-07-13T13:18:21;4.20;;;2.10;;
9007;SDS011;62813;51.424;6.762;2023-07-13T13:20:50;5.80;;;2.00;;
9007;SDS011;62813;51.424;6.762;2023-07-13T13:23:18;4.33;;;1.73;;
9007;SDS011;62813;51.424;6.762;2023-07-13T13:25:48;5.00;;;1.97;;
9007;SDS011;62813;51.424;6.762;2023-07-13T13:28:18;5.77;;;2.27;;
9007;SDS011;62813;51.424;6.762;2023-07-13T13:30:49;3.57;;;1.83;;
9007;SDS011;62813;51.424;6.762;2023-07-13T13:33:17;4.87;;;2.07;;
9007;SDS011;62813;51.424;6.762;2023-07-13T13:35:46;4.37;;;2.00;;
9007;SDS011;62813;51.424;6.762;2023-07-13T13:38:14;3.83;;;2.03;;
9007;SDS011;62813;51.424;6.762;2023-07-13T13:40:43;4.23;;;2.00;;
9007;SDS011;62813;51.424;6.762;2023-07-13T13:43:15;6.97;;;2.30;;
9007;SDS011;62813;51.424;6.762;2023-07-13T13:45:44;3.43;;;1.83;;
9007;SDS011;62813;51.424;6.762;2023-07-13T13:48:19;9.83;;;2.07;;
9007;SDS011;62813;51.424;6.762;2023-07-13T13:50:56;7.33;;;2.17;;
9007;SDS011;62813;51.424;6.762;2023-07-13T13:53:23;5.23;;;1.97;;
9007;SDS011;62813;51.424;6.762;2023-07-13T13:55:50;4.97;;;2.27;;
9007;SDS011;62813;51.424;6.762;2023-07-13T13:58:19;5.87;;;1.97;;
9007;SDS011;62813;51.424;6.762;2023-07-13T14:00:47;7.30;;;2.17;;
9007;SDS011;62813;51.424;6.762;2023-07-13T14:03:15;3.37;;;1.70;;
9007;SDS011;62813;51.424;6.762;2023-07-13T14:05:44;6.40;;;2.10;;
9007;SDS011;62813;51.424;6.762;2023-07-13T14:08:17;5.90;;;2.40;;
9007;SDS011;62813;51.424;6.762;2023-07-13T14:10:46;8.53;;;3.23;;
9007;SDS011;62813;51.424;6.762;2023-07-13T14:13:19;6.90;;;3.13;;
9007;SDS011;62813;51.424;6.762;2023-07-13T14:15:55;6.70;;;3.10;;
9007;SDS011;62813;51.424;6.762;2023-07-13T14:18:22;6.50;;;2.83;;
9007;SDS011;62813;51.424;6.762;2023-07-13T14:20:50;9.17;;;3.07;;
9007;SDS011;62813;51.424;6.762;2023-07-13T14:23:19;6.90;;;3.20;;
9007;SDS011;62813;51.424;6.762;2023-07-13T14:25:46;7.10;;;2.90;;
9007;SDS011;62813;51.424;6.762;2023-07-13T14:28:17;5.93;;;3.20;;
9007;SDS011;62813;51.424;6.762;2023-07-13T14:30:47;7.50;;;2.47;;
9007;SDS011;62813;51.424;6.762;2023-07-13T14:33:14;6.47;;;2.90;;
9007;SDS011;62813;51.424;6.762;2023-07-13T14:35:41;6.23;;;2.30;;
9007;SDS011;62813;51.424;6.762;2023-07-13T14:38:13;7.37;;;2.80;;
9007;SDS011;62813;51.424;6.762;2023-07-13T14:40:42;6.07;;;2.60;;
9007;SDS011;62813;51.424;6.762;2023-07-13T14:43:10;8.53;;;2.70;;
9007;SDS011;62813;51.424;6.762;2023-07-13T14:45:44;6.43;;;2.40;;
9007;SDS011;62813;51.424;6.762;2023-07-13T14:48:17;5.03;;;2.83;;
9007;SDS011;62813;51.424;6.762;2023-07-13T14:50:57;5.50;;;2.70;;
9007;SDS011;62813;51.424;6.762;2023-07-13T14:53:25;6.37;;;2.53;;
9007;SDS011;62813;51.424;6.762;2023-07-13T14:55:55;4.93;;;2.53;;
9007;SDS011;62813;51.424;6.762;2023-07-13T14:58:22;5.50;;;2.73;;
9007;SDS011;62813;51.424;6.762;2023-07-13T15:00:49;6.90;;;2.83;;
9007;SDS011;62813;51.424;6.762;2023-07-13T15:03:20;6.87;;;2.40;;
9007;SDS011;62813;51.424;6.762;2023-07-13T15:05:49;6.10;;;2.47;;
9007;SDS011;62813;51.424;6.762;2023-07-13T15:08:17;5.97;;;2.40;;
9007;SDS011;62813;51.424;6.762;2023-07-13T15:10:43;7.30;;;2.60;;
9007;SDS011;62813;51.424;6.762;2023-07-13T15:13:14;5.63;;;2.50;;
9007;SDS011;62813;51.424;6.762;2023-07-13T15:15:46;8.03;;;2.50;;
9007;SDS011;62813;51.424;6.762;2023-07-13T15:18:15;4.37;;;1.90;;
9007;SDS011;62813;51.424;6.762;2023-07-13T15:20:45;6.80;;;2.23;;
9007;SDS011;62813;51.424;6.762;2023-07-13T15:23:13;4.77;;;2.33;;
9007;SDS011;62813;51.424;6.762;2023-07-13T15:25:41;3.07;;;2.00;;
9007;SDS011;62813;51.424;6.762;2023-07-13T15:28:09;3.00;;;1.87;;
9007;SDS011;62813;51.424;6.762;2023-07-13T15:30:42;5.00;;;2.10;;
9007;SDS011;62813;51.424;6.762;2023-07-13T15:33:13;4.07;;;2.27;;
9007;SDS011;62813;51.424;6.762;2023-07-13T15:35:45;3.13;;;1.90;;
9007;SDS011;62813;51.424;6.762;2023-07-13T15:38:33;4.57;;;1.67;;
9007;SDS011;62813;51.424;6.762;2023-07-13T15:43:49;4.60;;;2.27;;
9007;SDS011;62813;51.424;6.762;2023-07-13T15:46:18;3.13;;;2.00;;
9007;SDS011;62813;51.424;6.762;2023-07-13T15:48:47;6.50;;;2.13;;
9007;SDS011;62813;51.424;6.762;2023-07-13T15:51:20;2.47;;;1.93;;
9007;SDS011;62813;51.424;6.762;2023-07-13T15:53:55;3.97;;;1.93;;
9007;SDS011;62813;51.424;6.762;2023-07-13T15:56:26;3.47;;;2.20;;
9007;SDS011;62813;51.424;6.762;2023-07-13T15:58:55;3.27;;;2.10;;
9007;SDS011;62813;51.424;6.762;2023-07-13T16:01:23;3.93;;;2.20;;
9007;SDS011;62813;51.424;6.762;2023-07-13T16:03:51;4.77;;;2.00;;
9007;SDS011;62813;51.424;6.762;2023-07-13T16:06:31;3.77;;;1.77;;
9007;SDS011;62813;51.424;6.762;2023-07-13T16:09:01;7.77;;;2.30;;
9007;SDS011;62813;51.424;6.762;2023-07-13T16:11:33;4.57;;;2.30;;